Time;durP1;ratioP1;P1;durP2;ratioP2;P2;SDS_P1;SDS_P2;PMS_P1;PMS_P2;Temp;Humidity;BMP_temperature;BMP_pressure;BME280_temperature;BME280_humidity;BME280_pressure;Samples;Min_cycle;Max_cycle;Signal;HPM_P1;HPM_P2
2021/12/29 00:00:35;;;;;;;17.10;7.20;;;;;;;-6.71;78.14;99275.08;1693087;82;21060;-66
2021/12/29 00:03:03;;;;;;;14.95;6.80;;;;;;;-6.81;79.08;99274.70;1716099;83;20989;-65
2021/12/29 00:05:30;;;;;;;11.75;5.50;;;;;;;-6.90;79.42;99273.59;1698169;82;21984;-63
2021/12/29 00:07:58;;;;;;;11.43;5.70;;;;;;;-6.88;79.47;99277.41;1712658;82;20966;-66
2021/12/29 00:10:25;;;;;;;12.73;6.67;;;;;;;-6.91;79.08;99281.34;1697382;83;20938;-66
2021/12/29 00:12:54;;;;;;;16.80;8.03;;;;;;;-6.96;78.84;99279.27;1711300;82;21041;-67
2021/12/29 00:15:27;;;;;;;14.28;7.62;;;;;;;-6.95;79.02;99281.44;1720991;82;21480;-64
2021/12/29 00:17:55;;;;;;;15.20;6.30;;;;;;;-6.92;79.18;99282.36;1715698;82;21093;-62
2021/12/29 00:20:28;;;;;;;16.52;7.17;;;;;;;-6.84;79.29;99285.34;1718697;83;21068;-64
2021/12/29 00:22:58;;;;;;;14.28;7.10;;;;;;;-6.86;78.85;99280.70;1719025;83;21461;-65
2021/12/29 00:25:24;;;;;;;14.85;7.12;;;;;;;-6.94;78.96;99277.72;1714086;82;21422;-66
2021/12/29 00:27:54;;;;;;;18.02;7.22;;;;;;;-6.93;79.17;99277.20;1715455;83;22037;-64
2021/12/29 00:30:20;;;;;;;18.62;8.15;;;;;;;-6.93;79.17;99275.88;1717743;82;21161;-66
2021/12/29 00:32:57;;;;;;;19.07;8.23;;;;;;;-6.98;79.06;99272.48;1715229;83;20962;-65
2021/12/29 00:35:42;;;;;;;19.23;7.65;;;;;;;-7.08;79.08;99270.25;1717633;83;21005;-65
2021/12/29 00:38:17;;;;;;;15.83;8.18;;;;;;;-7.19;79.12;99271.70;1674716;83;20996;-65
2021/12/29 00:41:02;;;;;;;14.70;7.42;;;;;;;-7.31;79.38;99266.16;1715301;83;20985;-66
2021/12/29 00:43:47;;;;;;;17.87;7.95;;;;;;;-7.35;79.75;99258.22;1717975;82;21952;-66
2021/12/29 00:46:17;;;;;;;16.02;7.50;;;;;;;-7.30;79.92;99256.28;1712487;83;21011;-64
2021/12/29 00:48:45;;;;;;;17.92;7.75;;;;;;;-7.31;79.92;99257.30;1713104;83;20965;-64
2021/12/29 00:51:12;;;;;;;18.52;7.42;;;;;;;-7.27;80.19;99249.16;1705153;83;21009;-64
2021/12/29 00:53:42;;;;;;;27.87;8.95;;;;;;;-7.30;79.84;99248.25;1716091;83;21115;-64
2021/12/29 00:56:12;;;;;;;18.87;8.05;;;;;;;-7.33;79.93;99251.64;1716523;83;21146;-63
2021/12/29 00:58:41;;;;;;;18.92;8.23;;;;;;;-7.34;79.86;99246.50;1717557;83;21478;-64
2021/12/29 01:01:10;;;;;;;24.25;10.03;;;;;;;-7.36;79.97;99240.02;1713624;83;21051;-64
2021/12/29 01:03:38;;;;;;;22.05;9.35;;;;;;;-7.33;80.06;99235.58;1718447;82;20961;-67
2021/12/29 01:06:06;;;;;;;25.85;9.88;;;;;;;-7.35;80.13;99222.91;1713525;83;21036;-65
2021/12/29 01:08:33;;;;;;;30.62;9.95;;;;;;;-7.27;80.46;99221.88;1712350;82;21139;-67
2021/12/29 01:11:00;;;;;;;23.57;8.98;;;;;;;-7.18;80.54;99217.63;1721139;83;21081;-65
2021/12/29 01:13:31;;;;;;;23.83;10.18;;;;;;;-7.16;80.19;99215.53;1715796;83;21576;-65
2021/12/29 01:18:37;;;;;;;18.17;7.15;;;;;;;-7.11;80.23;99204.50;1717718;82;20920;-66
2021/12/29 01:21:03;;;;;;;16.42;7.75;;;;;;;-7.09;80.13;99201.11;1716964;82;21814;-66
2021/12/29 01:23:29;;;;;;;14.10;7.03;;;;;;;-7.12;80.00;99194.84;1717357;83;21012;-63
2021/12/29 01:25:56;;;;;;;18.32;6.75;;;;;;;-7.17;79.70;99199.17;1719744;82;20980;-66
2021/12/29 01:28:24;;;;;;;19.52;7.97;;;;;;;-7.24;79.90;99201.87;1718867;82;21480;-65
2021/12/29 01:30:54;;;;;;;13.88;6.45;;;;;;;-7.28;79.90;99201.46;1714839;82;21544;-65
2021/12/29 01:33:22;;;;;;;13.88;6.62;;;;;;;-7.30;80.05;99204.86;1715863;83;20977;-66
2021/12/29 01:35:49;;;;;;;12.45;6.33;;;;;;;-7.30;80.15;99204.86;1696859;82;21091;-65
2021/12/29 01:38:16;;;;;;;13.08;6.50;;;;;;;-7.31;80.11;99206.41;1715436;83;21021;-64
2021/12/29 01:40:48;;;;;;;14.80;7.10;;;;;;;-7.31;80.25;99213.94;1718007;82;21577;-64
2021/12/29 01:43:11;;;;;;;16.17;6.65;;;;;;;-7.27;80.37;99215.69;1714858;83;21044;-65
2021/12/29 01:45:38;;;;;;;14.68;7.03;;;;;;;-7.25;80.49;99220.33;1717858;82;21146;-64
2021/12/29 01:48:06;;;;;;;14.45;7.30;;;;;;;-7.20;80.66;99219.17;1715671;83;21048;-65
2021/12/29 01:50:35;;;;;;;12.93;6.60;;;;;;;-7.15;80.66;99220.71;1713185;83;21186;-65
2021/12/29 01:53:08;;;;;;;16.45;7.67;;;;;;;-7.07;80.72;99221.49;1716605;83;21142;-65
2021/12/29 01:55:31;;;;;;;16.15;7.90;;;;;;;-7.05;80.47;99222.11;1712608;82;21064;-65
2021/12/29 01:57:59;;;;;;;13.18;5.87;;;;;;;-7.03;80.63;99222.22;1711576;83;21470;-66
2021/12/29 02:00:29;;;;;;;14.85;5.33;;;;;;;-7.05;80.27;99218.92;1712545;83;20934;-66
2021/12/29 02:02:59;;;;;;;12.65;6.90;;;;;;;-7.13;80.42;99218.63;1711914;83;20985;-66
2021/12/29 02:05:26;;;;;;;16.55;7.62;;;;;;;-7.16;80.64;99213.69;1714453;82;21015;-62
2021/12/29 02:07:54;;;;;;;14.75;7.40;;;;;;;-7.19;81.09;99205.25;1713246;83;21544;-65
2021/12/29 02:10:24;;;;;;;13.18;7.20;;;;;;;-7.18;80.98;99205.57;1714374;83;21140;-65
2021/12/29 02:12:51;;;;;;;14.18;6.28;;;;;;;-7.18;81.01;99205.03;1712446;83;20956;-65
2021/12/29 02:15:18;;;;;;;14.78;7.10;;;;;;;-7.14;81.13;99194.22;1712140;83;21040;-66
2021/12/29 02:17:45;;;;;;;14.07;8.18;;;;;;;-7.11;81.07;99193.79;1710959;83;21512;-64
2021/12/29 02:20:14;;;;;;;14.05;6.87;;;;;;;-7.13;80.89;99185.67;1711622;83;21008;-66
2021/12/29 02:22:45;;;;;;;12.78;6.85;;;;;;;-7.13;81.00;99181.12;1712571;83;21132;-66
2021/12/29 02:27:49;;;;;;;19.57;7.97;;;;;;;-7.15;81.73;99177.02;1711886;83;21061;-63
2021/12/29 02:30:17;;;;;;;12.85;6.58;;;;;;;-7.10;81.82;99183.40;1710125;83;21501;-64
2021/12/29 02:32:45;;;;;;;14.53;7.78;;;;;;;-7.03;81.81;99171.31;1687838;83;20917;-65
2021/12/29 02:35:13;;;;;;;11.33;6.35;;;;;;;-6.96;81.76;99168.61;1712144;83;21220;-64
2021/12/29 02:37:40;;;;;;;11.57;5.75;;;;;;;-6.92;81.61;99168.98;1711797;83;21060;-67
2021/12/29 02:40:07;;;;;;;13.98;7.42;;;;;;;-6.89;81.63;99161.34;1710800;83;21238;-66
2021/12/29 02:42:42;;;;;;;12.85;6.67;;;;;;;-6.86;81.55;99164.92;1706595;83;20932;-66
2021/12/29 02:45:07;;;;;;;17.07;7.53;;;;;;;-6.82;81.34;99165.86;1710511;83;21108;-67
2021/12/29 02:47:36;;;;;;;11.63;6.62;;;;;;;-6.88;80.85;99164.34;1714407;83;21110;-65
2021/12/29 02:50:05;;;;;;;12.23;6.85;;;;;;;-6.94;80.98;99158.47;1711846;83;21466;-66
2021/12/29 02:52:31;;;;;;;11.63;6.85;;;;;;;-6.98;80.99;99153.25;1713182;83;21008;-66
2021/12/29 02:54:57;;;;;;;14.95;6.17;;;;;;;-6.99;81.25;99160.97;1714421;83;21588;-65
2021/12/29 02:57:24;;;;;;;14.03;6.80;;;;;;;-6.95;81.36;99156.84;1710583;83;21064;-66
2021/12/29 02:59:50;;;;;;;14.07;7.00;;;;;;;-6.92;81.45;99155.06;1714468;83;21691;-65
2021/12/29 03:02:21;;;;;;;20.32;8.05;;;;;;;-6.87;81.52;99153.08;1711930;82;21345;-65
2021/12/29 03:04:47;;;;;;;10.15;6.45;;;;;;;-6.87;81.13;99161.95;1706709;82;21527;-64
2021/12/29 03:07:16;;;;;;;13.32;7.03;;;;;;;-6.90;81.12;99160.21;1714383;83;21075;-65
2021/12/29 03:09:43;;;;;;;13.18;6.62;;;;;;;-6.92;81.05;99161.77;1712180;83;20870;-63
2021/12/29 03:12:11;;;;;;;17.05;7.00;;;;;;;-6.94;81.07;99162.49;1710532;83;22122;-65
2021/12/29 03:14:38;;;;;;;16.07;8.35;;;;;;;-6.93;80.93;99166.84;1712629;83;20920;-65
2021/12/29 03:17:04;;;;;;;13.05;6.12;;;;;;;-6.99;80.89;99163.14;1711174;83;21076;-65
2021/12/29 03:19:30;;;;;;;21.25;6.62;;;;;;;-7.03;80.88;99162.45;1713004;83;21610;-65
2021/12/29 03:21:56;;;;;;;13.68;7.03;;;;;;;-7.03;81.13;99163.78;1711829;83;20972;-66
2021/12/29 03:24:23;;;;;;;14.63;7.15;;;;;;;-6.99;81.26;99159.12;1686708;84;21098;-65
2021/12/29 03:26:49;;;;;;;18.07;7.40;;;;;;;-6.98;81.05;99163.44;1712672;83;21555;-62
2021/12/29 03:29:16;;;;;;;13.93;7.60;;;;;;;-6.99;81.15;99170.34;1712182;83;20969;-65
2021/12/29 03:31:44;;;;;;;23.12;7.65;;;;;;;-6.95;81.37;99156.84;1713209;83;21020;-65
2021/12/29 03:34:10;;;;;;;15.58;7.87;;;;;;;-6.92;81.04;99148.88;1712220;83;21068;-66
2021/12/29 03:36:37;;;;;;;9.98;6.12;;;;;;;-6.98;80.96;99146.55;1712619;83;21040;-66
2021/12/29 03:39:04;;;;;;;10.85;5.97;;;;;;;-7.02;81.16;99147.50;1714420;83;21476;-65
2021/12/29 03:41:31;;;;;;;12.35;6.80;;;;;;;-7.05;81.05;99148.44;1714331;83;21014;-65
2021/12/29 03:43:57;;;;;;;13.53;7.20;;;;;;;-7.10;81.08;99143.22;1713089;83;20960;-65
2021/12/29 03:46:27;;;;;;;12.82;6.85;;;;;;;-7.12;81.09;99145.78;1713133;83;21513;-64
2021/12/29 03:48:55;;;;;;;13.85;6.87;;;;;;;-7.12;81.27;99150.63;1687352;83;21485;-65
2021/12/29 03:51:22;;;;;;;17.15;7.87;;;;;;;-7.15;81.22;99152.91;1712837;83;21024;-66
2021/12/29 03:53:51;;;;;;;16.15;7.35;;;;;;;-7.17;81.33;99149.11;1710811;83;20980;-67
2021/12/29 03:56:17;;;;;;;19.05;6.87;;;;;;;-7.13;81.57;99158.34;1710561;83;21186;-66
2021/12/29 03:58:45;;;;;;;12.78;6.20;;;;;;;-7.05;81.69;99157.81;1687933;83;21099;-64
2021/12/29 04:01:13;;;;;;;12.18;7.03;;;;;;;-7.02;81.61;99160.89;1706776;83;21567;-64
2021/12/29 04:03:45;;;;;;;11.48;5.92;;;;;;;-7.02;81.51;99159.55;1710945;82;20960;-65
2021/12/29 04:06:10;;;;;;;11.50;6.33;;;;;;;-6.98;81.65;99151.91;1710571;83;21051;-66
2021/12/29 04:08:38;;;;;;;13.88;7.12;;;;;;;-6.92;81.73;99145.69;1706674;83;21021;-66
2021/12/29 04:11:06;;;;;;;14.75;6.25;;;;;;;-6.88;81.59;99149.60;1686924;83;21083;-66
2021/12/29 04:13:36;;;;;;;15.35;5.90;;;;;;;-6.92;81.19;99149.71;1711893;83;21060;-65
2021/12/29 04:16:05;;;;;;;10.23;6.05;;;;;;;-6.96;81.28;99152.53;1712992;83;21088;-67
2021/12/29 04:18:32;;;;;;;11.48;6.12;;;;;;;-6.95;81.39;99155.50;1710465;83;21020;-66
2021/12/29 04:21:03;;;;;;;14.45;7.45;;;;;;;-6.94;81.44;99157.13;1687231;83;21572;-65
2021/12/29 04:23:33;;;;;;;11.40;6.40;;;;;;;-6.97;81.28;99153.55;1714365;83;21036;-62
2021/12/29 04:26:04;;;;;;;12.55;6.37;;;;;;;-6.96;81.70;99153.88;1711722;83;21060;-65
2021/12/29 04:28:31;;;;;;;10.45;6.05;;;;;;;-6.96;81.70;99153.88;1710761;83;21533;-66
2021/12/29 04:31:07;;;;;;;12.80;6.87;;;;;;;-6.93;81.57;99157.45;1711718;83;20912;-65
2021/12/29 04:33:38;;;;;;;12.65;6.37;;;;;;;-6.98;81.25;99152.72;1709400;83;21064;-66
2021/12/29 04:36:05;;;;;;;12.73;6.60;;;;;;;-7.01;81.36;99146.45;1712329;83;20988;-66
2021/12/29 04:38:33;;;;;;;12.18;6.60;;;;;;;-6.97;81.72;99145.51;1714374;83;21131;-66
2021/12/29 04:41:01;;;;;;;10.25;5.08;;;;;;;-6.90;81.70;99150.33;1712147;83;21059;-66
2021/12/29 04:43:28;;;;;;;12.88;6.47;;;;;;;-6.88;81.52;99145.58;1711501;83;20904;-64
2021/12/29 04:45:54;;;;;;;11.50;5.85;;;;;;;-6.86;81.65;99144.02;1709644;83;21636;-65
2021/12/29 04:48:25;;;;;;;13.15;6.28;;;;;;;-6.79;81.71;99142.64;1710856;83;21041;-67
2021/12/29 04:51:03;;;;;;;15.75;6.87;;;;;;;-6.74;81.65;99145.50;1711219;83;21103;-66
2021/12/29 04:53:23;;;;;;;13.30;6.80;;;;;;;-6.72;81.45;99144.78;1710872;83;21017;-66
2021/12/29 04:55:50;;;;;;;14.43;6.85;;;;;;;-6.72;81.45;99146.92;1712114;83;21013;-65
2021/12/29 04:58:19;;;;;;;12.47;6.00;;;;;;;-6.66;81.60;99150.61;1712957;83;21959;-63
2021/12/29 05:00:46;;;;;;;15.98;7.35;;;;;;;-6.63;81.46;99158.22;1712394;83;20893;-64
2021/12/29 05:03:13;;;;;;;15.13;6.45;;;;;;;-6.61;81.47;99155.31;1712873;82;21537;-64
2021/12/29 05:05:54;;;;;;;15.35;7.05;;;;;;;-6.64;81.06;99153.07;1709080;83;21031;-66
2021/12/29 05:08:24;;;;;;;15.80;7.72;;;;;;;-6.72;81.00;99147.46;1709953;83;21063;-65
2021/12/29 05:10:57;;;;;;;15.83;7.42;;;;;;;-6.72;81.22;99150.14;1713154;83;21181;-66
2021/12/29 05:13:28;;;;;;;15.23;7.72;;;;;;;-6.74;81.11;99147.64;1714593;83;20952;-66
2021/12/29 05:15:55;;;;;;;13.25;7.00;;;;;;;-6.75;81.32;99150.55;1709962;83;21254;-66
2021/12/29 05:18:24;;;;;;;14.18;7.30;;;;;;;-6.70;81.49;99152.61;1712262;83;21000;-65
2021/12/29 05:20:54;;;;;;;18.98;7.40;;;;;;;-6.65;81.48;99148.76;1713113;83;21103;-66
2021/12/29 05:23:21;;;;;;;13.03;6.87;;;;;;;-6.60;81.47;99146.23;1713061;83;21032;-66
2021/12/29 05:25:47;;;;;;;12.78;6.72;;;;;;;-6.54;81.43;99148.06;1713310;83;21051;-64
2021/12/29 05:28:17;;;;;;;13.90;7.55;;;;;;;-6.54;81.07;99145.89;1713156;82;21223;-66
2021/12/29 05:30:44;;;;;;;14.75;7.45;;;;;;;-6.55;80.85;99146.94;1713087;83;20956;-63
2021/12/29 05:33:11;;;;;;;12.55;6.30;;;;;;;-6.55;80.96;99150.42;1711874;83;20881;-65
2021/12/29 05:35:38;;;;;;;14.10;7.28;;;;;;;-6.52;81.03;99154.03;1714257;83;21023;-65
2021/12/29 05:38:04;;;;;;;18.65;8.23;;;;;;;-6.48;81.02;99157.91;1712657;83;21547;-65
2021/12/29 05:40:34;;;;;;;12.88;7.12;;;;;;;-6.44;80.93;99159.65;1713143;83;21105;-64
2021/12/29 05:43:00;;;;;;;15.10;7.08;;;;;;;-6.42;80.77;99164.28;1714571;83;21055;-64
2021/12/29 05:45:29;;;;;;;14.23;8.03;;;;;;;-6.41;80.71;99158.38;1711815;83;20965;-64
2021/12/29 05:47:55;;;;;;;13.45;7.83;;;;;;;-6.40;80.70;99154.16;1711658;83;21032;-67
2021/12/29 05:50:25;;;;;;;12.45;6.55;;;;;;;-6.42;80.49;99155.41;1710654;83;20968;-65
2021/12/29 05:52:53;;;;;;;11.57;6.67;;;;;;;-6.44;80.20;99155.63;1710622;83;21108;-66
2021/12/29 05:55:19;;;;;;;16.30;6.95;;;;;;;-6.52;80.01;99155.89;1714561;83;21484;-65
2021/12/29 05:57:46;;;;;;;15.93;7.22;;;;;;;-6.54;80.37;99157.45;1711104;83;21020;-65
2021/12/29 06:00:15;;;;;;;23.67;10.88;;;;;;;-6.52;80.35;99150.52;1712930;83;21017;-65
2021/12/29 06:02:43;;;;;;;27.05;11.68;;;;;;;-6.50;80.38;99149.25;1714083;82;21084;-64
2021/12/29 06:05:11;;;;;;;21.60;9.80;;;;;;;-6.51;80.24;99151.64;1710118;83;21119;-65
2021/12/29 06:07:40;;;;;;;31.93;11.57;;;;;;;-6.50;80.32;99151.94;1713896;83;21012;-67
2021/12/29 06:10:10;;;;;;;28.65;11.85;;;;;;;-6.50;80.08;99156.50;1714543;83;21076;-66
2021/12/29 06:12:38;;;;;;;26.12;10.43;;;;;;;-6.52;80.27;99159.91;1712013;83;21020;-66
2021/12/29 06:15:15;;;;;;;20.43;9.30;;;;;;;-6.48;80.42;99161.10;1712394;83;21072;-66
2021/12/29 06:17:42;;;;;;;23.18;10.75;;;;;;;-6.44;80.47;99152.94;1688266;83;21087;-64
2021/12/29 06:20:11;;;;;;;21.87;11.12;;;;;;;-6.40;80.38;99156.02;1687280;83;21111;-67
2021/12/29 06:22:41;;;;;;;19.75;9.40;;;;;;;-6.39;80.30;99154.97;1712012;83;21589;-67
2021/12/29 06:25:11;;;;;;;16.97;8.33;;;;;;;-6.37;80.34;99145.68;1711340;83;21092;-64
2021/12/29 06:27:38;;;;;;;24.52;8.60;;;;;;;-6.33;80.30;99143.39;1712039;83;21016;-66
2021/12/29 06:30:08;;;;;;;17.62;8.93;;;;;;;-6.28;80.06;99153.45;1711617;83;21122;-67
2021/12/29 06:32:37;;;;;;;22.42;9.93;;;;;;;-6.29;79.93;99152.63;1711732;83;21047;-65
2021/12/29 06:35:06;;;;;;;20.17;9.48;;;;;;;-6.33;79.72;99149.27;1710521;83;21559;-65
2021/12/29 06:37:33;;;;;;;16.55;8.98;;;;;;;-6.42;79.44;99150.88;1710862;83;21067;-70
2021/12/29 06:39:59;;;;;;;16.02;8.15;;;;;;;-6.49;79.59;99156.28;1711691;83;21138;-66
2021/12/29 06:42:26;;;;;;;14.75;8.45;;;;;;;-6.46;79.97;99156.35;1713418;83;21764;-66
2021/12/29 06:44:54;;;;;;;18.07;8.00;;;;;;;-6.41;80.06;99159.20;1712982;83;20924;-65
2021/12/29 06:47:22;;;;;;;18.30;9.18;;;;;;;-6.37;80.16;99160.43;1685701;82;21024;-66
2021/12/29 06:49:50;;;;;;;17.07;8.58;;;;;;;-6.30;80.11;99163.06;1713018;83;21047;-67
2021/12/29 06:52:16;;;;;;;19.40;8.60;;;;;;;-6.25;80.07;99161.06;1711997;83;21024;-66
2021/12/29 06:54:44;;;;;;;15.90;9.05;;;;;;;-6.18;80.02;99169.89;1713246;83;21502;-63
2021/12/29 06:57:12;;;;;;;20.32;8.73;;;;;;;-6.19;79.86;99166.89;1714323;83;21068;-65
2021/12/29 06:59:38;;;;;;;16.15;9.08;;;;;;;-6.17;79.96;99163.47;1710836;83;20974;-65
2021/12/29 07:02:06;;;;;;;23.35;9.35;;;;;;;-6.13;79.98;99166.04;1713395;83;21011;-66
2021/12/29 07:04:33;;;;;;;16.23;9.00;;;;;;;-6.07;80.00;99167.55;1713365;82;21503;-66
2021/12/29 07:06:59;;;;;;;19.02;9.65;;;;;;;-6.01;79.86;99170.66;1713568;83;21155;-68
2021/12/29 07:09:26;;;;;;;17.82;8.73;;;;;;;-5.97;79.84;99169.16;1711582;83;21012;-67
2021/12/29 07:11:54;;;;;;;18.32;9.70;;;;;;;-5.92;79.81;99163.95;1712144;83;21052;-67
2021/12/29 07:14:22;;;;;;;18.20;10.10;;;;;;;-5.88;79.73;99158.97;1707026;83;21944;-64
2021/12/29 07:16:50;;;;;;;19.10;9.30;;;;;;;-5.84;79.67;99163.38;1688184;84;21501;-66
2021/12/29 07:19:18;;;;;;;21.17;9.65;;;;;;;-5.80;79.55;99162.72;1713747;83;21411;-65
2021/12/29 07:21:47;;;;;;;22.93;9.38;;;;;;;-5.78;79.33;99167.86;1713120;83;21485;-67
2021/12/29 07:24:13;;;;;;;22.62;9.15;;;;;;;-5.76;79.29;99165.78;1713150;82;21036;-65
2021/12/29 07:26:42;;;;;;;25.43;10.95;;;;;;;-5.74;79.24;99161.02;1714421;83;21039;-67
2021/12/29 07:29:11;;;;;;;22.02;10.63;;;;;;;-5.72;79.18;99167.00;1712216;83;21579;-66
2021/12/29 07:31:38;;;;;;;22.50;11.35;;;;;;;-5.69;79.01;99167.89;1711947;83;21532;-68
2021/12/29 07:34:07;;;;;;;20.15;10.08;;;;;;;-5.67;79.06;99169.02;1711612;83;20964;-64
2021/12/29 07:36:35;;;;;;;20.72;10.15;;;;;;;-5.65;78.99;99169.11;1713399;83;21166;-66
2021/12/29 07:39:03;;;;;;;23.07;10.30;;;;;;;-5.62;78.97;99167.31;1713079;83;21531;-66
2021/12/29 07:41:32;;;;;;;23.70;10.82;;;;;;;-5.59;78.89;99159.84;1711336;83;21071;-64
2021/12/29 07:44:03;;;;;;;23.25;9.75;;;;;;;-5.56;78.85;99168.81;1712969;83;21360;-66
2021/12/29 07:46:34;;;;;;;21.87;11.40;;;;;;;-5.57;78.57;99168.50;1713127;83;20960;-66
2021/12/29 07:49:03;;;;;;;23.70;9.80;;;;;;;-5.57;78.54;99165.81;1705788;83;21123;-68
2021/12/29 07:51:30;;;;;;;21.45;10.38;;;;;;;-5.55;78.51;99166.42;1712834;83;21540;-66
2021/12/29 07:53:59;;;;;;;27.60;10.90;;;;;;;-5.51;78.55;99168.97;1712291;82;21056;-68
2021/12/29 07:56:26;;;;;;;21.70;10.32;;;;;;;-5.50;78.49;99166.06;1713115;83;21115;-66
2021/12/29 07:58:53;;;;;;;14.78;8.13;;;;;;;-5.46;78.35;99165.09;1714022;83;21432;-67
2021/12/29 08:01:20;;;;;;;23.87;11.00;;;;;;;-5.43;78.17;99176.73;1710442;83;21466;-67
2021/12/29 08:03:51;;;;;;;22.75;10.68;;;;;;;-5.52;77.71;99168.66;1711730;82;20996;-65
2021/12/29 08:06:18;;;;;;;21.12;11.10;;;;;;;-5.55;77.87;99171.79;1712218;83;21477;-67
2021/12/29 08:08:44;;;;;;;23.32;11.45;;;;;;;-5.54;78.00;99170.73;1714102;83;21491;-67
2021/12/29 08:11:19;;;;;;;25.82;13.50;;;;;;;-5.52;78.08;99168.66;1714486;83;21047;-69
2021/12/29 08:13:49;;;;;;;24.67;13.18;;;;;;;-5.47;78.08;99167.47;1710556;82;21049;-68
2021/12/29 08:16:19;;;;;;;31.73;13.75;;;;;;;-5.45;78.08;99165.39;1686350;83;20980;-64
2021/12/29 08:18:46;;;;;;;25.72;12.45;;;;;;;-5.40;78.09;99165.55;1712556;83;21066;-66
2021/12/29 08:21:15;;;;;;;27.93;14.00;;;;;;;-5.37;78.05;99169.12;1713401;83;21504;-66
2021/12/29 08:23:41;;;;;;;24.20;12.58;;;;;;;-5.33;77.99;99165.47;1711909;82;20972;-66
2021/12/29 08:26:09;;;;;;;26.77;12.75;;;;;;;-5.31;78.00;99167.42;1713108;83;21032;-69
2021/12/29 08:28:37;;;;;;;24.05;12.63;;;;;;;-5.27;77.94;99175.31;1713117;83;21087;-68
2021/12/29 08:31:04;;;;;;;27.13;13.22;;;;;;;-5.25;77.97;99173.23;1712696;83;21095;-68
2021/12/29 08:33:35;;;;;;;24.23;12.73;;;;;;;-5.20;77.95;99163.14;1713188;82;21504;-65
2021/12/29 08:36:00;;;;;;;28.40;13.88;;;;;;;-5.17;77.80;99161.89;1713041;83;21386;-67
2021/12/29 08:38:28;;;;;;;30.52;13.25;;;;;;;-5.16;77.69;99159.48;1712235;83;21123;-67
2021/12/29 08:40:59;;;;;;;26.70;13.48;;;;;;;-5.15;77.57;99164.63;1713298;83;21029;-67
2021/12/29 08:43:26;;;;;;;28.30;14.15;;;;;;;-5.14;77.56;99166.30;1713158;83;20941;-67
2021/12/29 08:45:53;;;;;;;27.15;13.60;;;;;;;-5.13;77.52;99167.09;1711364;82;21564;-65
2021/12/29 08:48:20;;;;;;;27.48;13.13;;;;;;;-5.10;77.47;99171.22;1711961;83;21232;-68
2021/12/29 08:50:46;;;;;;;26.33;12.73;;;;;;;-5.07;77.45;99167.56;1712995;83;21087;-66
2021/12/29 08:53:14;;;;;;;29.80;13.40;;;;;;;-5.05;77.29;99163.30;1709384;82;21087;-68
2021/12/29 08:55:46;;;;;;;25.95;12.53;;;;;;;-5.04;77.17;99164.42;1707960;83;21035;-64
2021/12/29 08:58:15;;;;;;;30.75;14.50;;;;;;;-5.03;77.07;99166.05;1673630;84;21133;-65
2021/12/29 09:00:44;;;;;;;24.47;13.70;;;;;;;-5.04;76.95;99160.39;1712502;83;21008;-65
2021/12/29 09:03:17;;;;;;;22.50;12.53;;;;;;;-5.01;76.97;99165.30;1713134;82;21080;-67
2021/12/29 09:05:47;;;;;;;25.90;14.13;;;;;;;-4.98;76.96;99163.22;1710614;83;21592;-67
2021/12/29 09:08:15;;;;;;;27.00;14.23;;;;;;;-4.96;76.89;99155.20;1712457;83;21059;-67
2021/12/29 09:10:42;;;;;;;27.52;13.90;;;;;;;-4.99;76.50;99153.49;1714576;83;21111;-68
2021/12/29 09:13:10;;;;;;;30.82;15.03;;;;;;;-5.01;76.65;99155.06;1711557;83;21565;-67
2021/12/29 09:15:39;;;;;;;30.43;14.58;;;;;;;-4.97;76.80;99153.58;1712028;83;21520;-65
2021/12/29 09:18:12;;;;;;;23.45;12.65;;;;;;;-4.92;76.75;99155.06;1714608;83;21020;-66
2021/12/29 09:20:45;;;;;;;29.65;13.25;;;;;;;-4.89;76.59;99157.81;1712435;83;20932;-67
2021/12/29 09:23:14;;;;;;;27.50;13.75;;;;;;;-4.89;76.51;99161.33;1688038;83;21790;-65
2021/12/29 09:25:41;;;;;;;24.82;13.18;;;;;;;-4.86;76.45;99161.39;1711660;83;21587;-66
2021/12/29 09:28:11;;;;;;;29.20;13.85;;;;;;;-4.82;76.41;99171.17;1711571;83;21032;-67
2021/12/29 09:30:39;;;;;;;29.32;14.83;;;;;;;-4.81;76.30;99162.87;1712369;83;21080;-67
2021/12/29 09:33:07;;;;;;;25.72;14.05;;;;;;;-4.78;76.19;99162.95;1714518;83;21046;-66
2021/12/29 09:35:34;;;;;;;34.40;16.93;;;;;;;-4.82;75.99;99168.48;1709593;83;21830;-65
2021/12/29 09:38:01;;;;;;;38.17;15.55;;;;;;;-4.90;75.92;99163.73;1712658;83;21052;-66
2021/12/29 09:40:27;;;;;;;30.90;15.90;;;;;;;-4.91;76.08;99162.08;1711729;83;20972;-65
2021/12/29 09:42:56;;;;;;;31.42;15.68;;;;;;;-4.94;75.63;99162.53;1711761;83;20941;-64
2021/12/29 09:45:23;;;;;;;37.10;17.10;;;;;;;-5.08;75.33;99172.62;1688016;83;21632;-64
2021/12/29 09:47:51;;;;;;;42.58;18.48;;;;;;;-5.27;75.38;99172.63;1713197;83;21525;-64
2021/12/29 09:50:20;;;;;;;34.08;16.87;;;;;;;-5.34;75.83;99173.75;1712349;83;21441;-64
2021/12/29 09:52:46;;;;;;;36.30;18.70;;;;;;;-5.31;76.29;99170.10;1712994;83;20984;-65
2021/12/29 09:55:20;;;;;;;37.85;19.02;;;;;;;-5.35;75.87;99166.72;1713883;83;21128;-65
2021/12/29 09:57:51;;;;;;;41.15;18.05;;;;;;;-5.47;75.97;99165.30;1687278;83;21040;-64
2021/12/29 10:00:40;;;;;;;35.00;18.37;;;;;;;-5.58;76.21;99164.19;1714309;83;21181;-66
2021/12/29 10:03:10;;;;;;;36.90;18.35;;;;;;;-5.64;76.60;99166.71;1713435;82;21193;-66
2021/12/29 10:05:39;;;;;;;35.58;18.80;;;;;;;-5.60;76.90;99164.92;1712850;83;21122;-68
2021/12/29 10:08:12;;;;;;;38.60;19.27;;;;;;;-5.61;76.92;99161.41;1712324;83;21572;-65
2021/12/29 10:10:42;;;;;;;32.05;18.30;;;;;;;-5.64;77.08;99158.66;1711908;83;21421;-63
2021/12/29 10:13:10;;;;;;;37.63;19.15;;;;;;;-5.66;76.90;99162.08;1709443;83;21139;-65
2021/12/29 10:15:45;;;;;;;35.30;18.98;;;;;;;-5.71;77.15;99167.83;1710674;83;20948;-68
2021/12/29 10:18:18;;;;;;;39.60;20.20;;;;;;;-5.66;77.57;99165.27;1713016;83;21080;-67
2021/12/29 10:21:02;;;;;;;37.75;18.52;;;;;;;-5.55;77.86;99167.77;1711731;83;21083;-67
2021/12/29 10:23:34;;;;;;;38.63;19.05;;;;;;;-5.43;77.99;99170.02;1707366;83;21004;-67
2021/12/29 10:26:10;;;;;;;41.18;19.17;;;;;;;-5.32;77.91;99162.27;1712758;83;21727;-64
2021/12/29 10:28:40;;;;;;;37.03;20.52;;;;;;;-5.29;77.78;99163.16;1711466;83;21005;-66
2021/12/29 10:31:16;;;;;;;39.63;19.45;;;;;;;-5.18;77.90;99162.91;1687602;83;21123;-64
2021/12/29 10:33:56;;;;;;;39.42;20.40;;;;;;;-5.06;77.78;99163.81;1711553;82;21017;-65
2021/12/29 10:36:35;;;;;;;39.60;19.40;;;;;;;-5.07;77.01;99151.95;1711715;83;21116;-66
2021/12/29 10:39:09;;;;;;;32.83;17.35;;;;;;;-5.17;76.88;99160.00;1709726;83;21152;-67
2021/12/29 10:41:58;;;;;;;50.63;22.15;;;;;;;-5.30;76.54;99165.02;1713271;83;21107;-67
2021/12/29 10:44:32;;;;;;;41.30;19.95;;;;;;;-5.43;76.55;99161.96;1710622;83;21596;-66
2021/12/29 10:47:02;;;;;;;38.13;18.67;;;;;;;-5.42;76.91;99162.25;1683974;83;21449;-67
2021/12/29 10:49:29;;;;;;;36.20;20.00;;;;;;;-5.43;76.82;99160.62;1710461;83;20917;-68
2021/12/29 10:51:59;;;;;;;44.38;21.20;;;;;;;-5.40;77.23;99160.17;1709967;83;21787;-67
2021/12/29 10:54:28;;;;;;;40.48;20.77;;;;;;;-5.43;76.90;99161.96;1712922;83;21012;-67
2021/12/29 10:57:07;;;;;;;46.83;23.65;;;;;;;-5.45;77.24;99161.36;1712142;83;21027;-68
2021/12/29 10:59:37;;;;;;;44.00;23.87;;;;;;;-5.46;76.96;99161.07;1713631;83;20900;-67
2021/12/29 11:02:04;;;;;;;46.88;23.15;;;;;;;-5.51;77.18;99157.69;1712496;83;21489;-67
2021/12/29 11:04:33;;;;;;;50.90;25.88;;;;;;;-5.45;77.60;99157.33;1711992;82;21233;-68
2021/12/29 11:07:04;;;;;;;48.98;24.32;;;;;;;-5.37;77.68;99149.48;1709889;82;21079;-67
2021/12/29 11:09:34;;;;;;;54.25;26.25;;;;;;;-5.35;77.42;99150.09;1711300;83;20964;-66
2021/12/29 11:12:10;;;;;;;58.33;27.20;;;;;;;-5.40;77.32;99152.63;1710508;82;21036;-67
2021/12/29 11:14:42;;;;;;;56.68;27.02;;;;;;;-5.45;77.29;99155.16;1710812;83;20957;-66
2021/12/29 11:17:25;;;;;;;49.27;25.95;;;;;;;-5.50;77.41;99155.32;1713029;83;21186;-67
2021/12/29 11:19:59;;;;;;;54.27;27.55;;;;;;;-5.53;77.48;99147.72;1711978;83;21016;-67
2021/12/29 11:22:28;;;;;;;51.30;26.20;;;;;;;-5.57;77.43;99155.07;1711884;83;20992;-66
2021/12/29 11:25:07;;;;;;;53.00;26.77;;;;;;;-5.56;77.67;99158.08;1712177;83;21075;-68
2021/12/29 11:27:35;;;;;;;51.30;26.62;;;;;;;-5.51;77.91;99157.69;1713163;83;21004;-65
2021/12/29 11:30:09;;;;;;;50.20;25.68;;;;;;;-5.40;78.13;99165.55;1711887;82;21903;-66
2021/12/29 11:32:43;;;;;;;55.78;28.38;;;;;;;-5.37;77.64;99161.58;1709849;83;20905;-65
2021/12/29 11:35:25;;;;;;;54.60;28.47;;;;;;;-5.47;77.59;99167.47;1713671;83;21524;-66